Time;durP1;ratioP1;P1;durP2;ratioP2;P2;SDS_P1;SDS_P2;PMS_P1;PMS_P2;Temp;Humidity;BMP_temperature;BMP_pressure;BME280_temperature;BME280_humidity;BME280_pressure;Samples;Min_cycle;Max_cycle;Signal;HPM_P1;HPM_P2
2022/07/24 00:01:40;;;;;;;14.65;9.20;;;17.80;59.20;;;;;;5050116;28;20742;-76
2022/07/24 00:04:06;;;;;;;11.45;8.55;;;17.80;59.10;;;;;;5049452;28;20417;-76
2022/07/24 00:06:32;;;;;;;11.20;8.30;;;17.80;58.90;;;;;;5049635;28;20386;-76
2022/07/24 00:08:58;;;;;;;9.73;8.13;;;17.80;58.50;;;;;;5051575;28;20469;-76
2022/07/24 00:11:23;;;;;;;10.07;7.90;;;17.80;58.80;;;;;;5051831;28;20413;-75
2022/07/24 00:13:49;;;;;;;15.18;9.65;;;17.70;59.30;;;;;;5057579;28;20424;-75
2022/07/24 00:16:15;;;;;;;12.30;9.30;;;17.70;59.40;;;;;;5072039;28;20400;-75
2022/07/24 00:18:40;;;;;;;12.07;8.60;;;17.70;59.80;;;;;;5063966;28;20390;-75
2022/07/24 00:21:06;;;;;;;13.67;9.07;;;17.70;59.90;;;;;;5071716;28;20457;-73
2022/07/24 00:23:31;;;;;;;12.35;9.45;;;17.70;60.10;;;;;;5062061;28;20482;-75
2022/07/24 00:25:57;;;;;;;13.05;9.00;;;17.70;59.90;;;;;;5055050;28;20388;-76
2022/07/24 00:28:23;;;;;;;12.18;8.52;;;17.60;59.60;;;;;;5054079;28;20392;-76
2022/07/24 00:30:49;;;;;;;11.07;7.88;;;17.70;59.50;;;;;;5054126;28;20904;-76
2022/07/24 00:33:15;;;;;;;15.83;9.90;;;17.60;59.90;;;;;;5053532;28;20431;-75
2022/07/24 00:35:40;;;;;;;12.17;9.63;;;17.60;60.60;;;;;;5053755;28;20397;-76
2022/07/24 00:38:07;;;;;;;15.80;9.27;;;17.60;61.30;;;;;;5053862;28;20863;-76
2022/07/24 00:40:32;;;;;;;11.40;9.00;;;17.60;60.90;;;;;;5055020;28;20441;-76
2022/07/24 00:42:58;;;;;;;10.40;8.80;;;17.60;61.40;;;;;;5053430;28;20460;-76
2022/07/24 00:45:24;;;;;;;17.67;9.73;;;17.60;60.90;;;;;;5054079;28;20384;-76
2022/07/24 00:47:50;;;;;;;13.33;9.97;;;17.60;61.10;;;;;;5055813;28;20464;-74
2022/07/24 00:50:16;;;;;;;11.17;9.00;;;17.60;60.90;;;;;;5056220;28;20401;-75
2022/07/24 00:52:44;;;;;;;13.43;9.00;;;17.70;61.60;;;;;;5056350;28;20386;-76
2022/07/24 00:55:10;;;;;;;13.03;9.87;;;17.70;60.90;;;;;;5055785;28;20484;-76
2022/07/24 00:57:36;;;;;;;14.30;9.88;;;17.70;62.20;;;;;;5053925;28;20378;-76
2022/07/24 01:00:06;;;;;;;13.25;9.73;;;17.70;62.60;;;;;;5055523;28;20404;-76
2022/07/24 01:02:31;;;;;;;14.57;9.48;;;17.60;62.10;;;;;;5053404;28;20855;-76
2022/07/24 01:04:57;;;;;;;15.33;10.40;;;17.60;63.90;;;;;;5053730;28;20469;-75
2022/07/24 01:07:22;;;;;;;11.67;8.90;;;17.60;63.50;;;;;;5053613;28;20781;-76
2022/07/24 01:09:48;;;;;;;11.27;9.30;;;17.50;63.80;;;;;;5053994;28;20885;-76
2022/07/24 01:12:14;;;;;;;13.35;10.20;;;17.50;63.70;;;;;;5054893;28;20919;-76
2022/07/24 01:14:40;;;;;;;15.07;10.80;;;17.50;64.40;;;;;;5056205;28;20464;-76
2022/07/24 01:17:05;;;;;;;14.00;10.70;;;17.40;65.80;;;;;;5056351;28;20400;-76
2022/07/24 01:19:31;;;;;;;13.95;10.73;;;17.40;66.20;;;;;;5056257;28;20396;-75
2022/07/24 01:21:56;;;;;;;13.07;9.50;;;17.40;67.00;;;;;;5054755;28;20400;-76
2022/07/24 01:24:22;;;;;;;15.73;10.90;;;17.40;67.40;;;;;;5054222;28;20416;-75
2022/07/24 01:26:48;;;;;;;12.43;10.80;;;17.30;68.80;;;;;;5054833;28;20420;-76
2022/07/24 01:29:14;;;;;;;15.50;11.50;;;17.20;70.00;;;;;;5055247;28;20433;-75
2022/07/24 01:31:41;;;;;;;15.52;11.30;;;17.20;71.10;;;;;;5053627;28;20377;-75
2022/07/24 01:34:06;;;;;;;15.13;11.57;;;17.20;72.10;;;;;;5053950;28;20792;-76
2022/07/24 01:36:32;;;;;;;19.20;11.75;;;17.20;73.30;;;;;;5057192;28;20476;-76
2022/07/24 01:38:58;;;;;;;17.10;13.27;;;17.20;73.70;;;;;;5054410;28;20396;-75
2022/07/24 01:41:24;;;;;;;14.65;11.43;;;17.20;75.10;;;;;;5056628;28;20408;-77
2022/07/24 01:43:49;;;;;;;15.40;12.00;;;17.20;74.50;;;;;;5054710;28;20405;-76
2022/07/24 01:46:15;;;;;;;14.50;11.93;;;17.20;74.70;;;;;;5057668;28;20444;-75
2022/07/24 01:48:42;;;;;;;16.35;11.80;;;17.20;74.80;;;;;;5058636;28;20388;-76
2022/07/24 01:51:08;;;;;;;16.27;12.52;;;17.10;74.90;;;;;;5056237;28;20408;-75
2022/07/24 01:53:35;;;;;;;17.67;11.65;;;17.10;75.80;;;;;;5054181;28;20389;-75
2022/07/24 01:56:00;;;;;;;17.45;11.13;;;17.10;74.90;;;;;;5052892;28;20447;-75
2022/07/24 01:58:26;;;;;;;16.80;11.57;;;17.10;74.40;;;;;;5052292;28;20874;-75
2022/07/24 02:00:52;;;;;;;16.53;12.40;;;17.10;75.00;;;;;;5051983;28;20618;-74
2022/07/24 02:03:19;;;;;;;15.93;11.47;;;17.10;74.80;;;;;;5053246;28;20517;-74
2022/07/24 02:05:45;;;;;;;16.50;12.88;;;17.10;75.00;;;;;;5059456;28;20396;-75
2022/07/24 02:08:10;;;;;;;16.23;11.80;;;17.00;74.40;;;;;;5054045;28;20389;-75
2022/07/24 02:10:36;;;;;;;16.80;11.23;;;17.00;74.70;;;;;;5061842;28;20490;-74
2022/07/24 02:13:02;;;;;;;15.27;11.52;;;17.00;74.30;;;;;;5061972;28;20397;-75
2022/07/24 02:15:28;;;;;;;15.02;11.10;;;17.10;72.50;;;;;;5061233;28;20386;-75
2022/07/24 02:17:56;;;;;;;14.63;10.45;;;17.00;71.90;;;;;;5060236;28;20415;-74
2022/07/24 02:20:23;;;;;;;12.93;10.63;;;17.10;71.10;;;;;;5060559;28;20388;-74
2022/07/24 02:22:49;;;;;;;13.85;11.00;;;17.10;70.70;;;;;;5060401;28;20963;-74
2022/07/24 02:25:15;;;;;;;12.93;10.27;;;17.20;69.70;;;;;;5057410;28;20381;-75
2022/07/24 02:27:41;;;;;;;15.27;10.52;;;17.10;70.00;;;;;;5051603;28;20386;-74
2022/07/24 02:30:13;;;;;;;16.85;10.30;;;17.10;70.00;;;;;;5051492;28;20472;-74
2022/07/24 02:32:38;;;;;;;15.07;11.27;;;17.10;70.00;;;;;;5051316;28;20439;-74
2022/07/24 02:35:05;;;;;;;11.60;9.90;;;17.00;70.10;;;;;;5051932;28;20874;-74
2022/07/24 02:37:30;;;;;;;13.80;10.15;;;17.10;68.90;;;;;;5051630;28;20419;-74
2022/07/24 02:39:56;;;;;;;20.63;11.23;;;17.10;69.20;;;;;;5050435;28;20385;-74
2022/07/24 02:42:21;;;;;;;13.03;9.90;;;17.10;68.70;;;;;;5050978;28;20374;-75
2022/07/24 02:44:47;;;;;;;11.32;9.60;;;17.10;68.10;;;;;;5051046;28;20413;-73
2022/07/24 02:47:13;;;;;;;14.52;10.07;;;17.10;68.00;;;;;;5051027;28;20388;-74
2022/07/24 02:49:38;;;;;;;11.83;9.20;;;17.10;67.50;;;;;;5050877;28;20423;-73
2022/07/24 02:52:04;;;;;;;14.37;10.00;;;17.10;67.60;;;;;;5050965;28;20378;-73
2022/07/24 02:54:30;;;;;;;10.82;8.45;;;17.10;67.50;;;;;;5051090;28;20377;-73
2022/07/24 02:56:55;;;;;;;12.32;9.10;;;17.10;66.10;;;;;;5050804;28;20463;-73
2022/07/24 02:59:22;;;;;;;12.85;9.55;;;17.20;65.80;;;;;;5050730;28;20715;-73
2022/07/24 03:01:48;;;;;;;10.77;9.27;;;17.20;65.10;;;;;;5050624;28;20385;-73
2022/07/24 03:04:13;;;;;;;12.60;9.50;;;17.20;64.80;;;;;;5050757;28;20409;-75
2022/07/24 03:06:39;;;;;;;10.50;9.40;;;17.20;64.90;;;;;;5050906;28;20850;-75
2022/07/24 03:09:04;;;;;;;14.35;9.70;;;17.20;65.70;;;;;;5050778;28;20374;-74
2022/07/24 03:11:30;;;;;;;12.67;9.20;;;17.20;66.10;;;;;;5050872;28;20441;-73
2022/07/24 03:13:56;;;;;;;13.00;10.00;;;17.10;65.80;;;;;;5050806;28;20378;-73
2022/07/24 03:16:21;;;;;;;14.73;9.63;;;17.10;66.50;;;;;;5050763;28;20413;-72
2022/07/24 03:18:48;;;;;;;21.65;10.40;;;17.10;66.50;;;;;;5050938;28;20413;-74
2022/07/24 03:21:15;;;;;;;12.97;10.17;;;17.20;65.50;;;;;;5050377;28;20397;-75
2022/07/24 03:23:41;;;;;;;12.52;9.60;;;17.20;65.40;;;;;;5050787;28;20408;-75
2022/07/24 03:26:06;;;;;;;10.65;9.00;;;17.20;65.70;;;;;;5050980;28;20389;-74
2022/07/24 03:28:32;;;;;;;11.85;9.70;;;17.10;65.50;;;;;;5049592;28;20390;-75
2022/07/24 03:30:58;;;;;;;12.53;9.10;;;17.10;65.40;;;;;;5051077;28;20456;-75
2022/07/24 03:33:23;;;;;;;10.53;8.83;;;17.10;65.50;;;;;;5054020;28;20469;-74
2022/07/24 03:35:49;;;;;;;13.20;9.48;;;17.20;64.90;;;;;;5053786;28;20443;-73
2022/07/24 03:38:15;;;;;;;12.50;9.80;;;17.10;65.70;;;;;;5050569;28;20373;-73
2022/07/24 03:40:41;;;;;;;14.35;10.35;;;17.10;65.40;;;;;;5050688;28;20782;-73
2022/07/24 03:43:06;;;;;;;14.68;10.70;;;17.10;65.80;;;;;;5050414;28;20397;-74
2022/07/24 03:45:32;;;;;;;15.07;11.10;;;17.00;65.60;;;;;;5050451;28;20464;-73
2022/07/24 03:47:58;;;;;;;12.80;10.03;;;17.10;65.60;;;;;;5050803;28;20377;-73
2022/07/24 03:50:23;;;;;;;14.23;9.30;;;17.10;66.10;;;;;;5050146;28;20393;-74
2022/07/24 03:52:49;;;;;;;11.40;9.05;;;17.10;65.70;;;;;;5054019;28;20391;-74
2022/07/24 03:55:14;;;;;;;15.15;9.70;;;17.20;64.90;;;;;;5054190;28;20472;-74
2022/07/24 03:57:40;;;;;;;15.50;9.87;;;17.20;65.20;;;;;;5054109;28;20424;-74
2022/07/24 04:00:07;;;;;;;15.20;10.30;;;17.10;65.50;;;;;;5053996;28;20900;-74
2022/07/24 04:02:33;;;;;;;13.27;8.90;;;17.20;65.30;;;;;;5053866;28;20385;-74
2022/07/24 04:04:58;;;;;;;14.30;10.30;;;17.30;65.20;;;;;;5054152;28;20939;-74
2022/07/24 04:07:24;;;;;;;12.73;9.80;;;17.20;65.90;;;;;;5053933;28;20417;-74
2022/07/24 04:09:49;;;;;;;14.33;10.43;;;17.30;65.90;;;;;;5053891;28;20906;-74
2022/07/24 04:12:15;;;;;;;13.10;10.03;;;17.30;66.30;;;;;;5053669;28;20742;-74
2022/07/24 04:14:40;;;;;;;13.40;9.80;;;17.30;66.50;;;;;;5053919;28;20513;-73
2022/07/24 04:17:06;;;;;;;13.90;10.90;;;17.40;65.90;;;;;;5053994;28;20400;-74
2022/07/24 04:19:32;;;;;;;17.07;10.87;;;17.40;66.10;;;;;;5053769;28;20397;-75
2022/07/24 04:21:58;;;;;;;14.30;10.57;;;17.40;66.50;;;;;;5053521;28;20389;-74
2022/07/24 04:24:23;;;;;;;13.70;9.80;;;17.40;66.60;;;;;;5053764;28;20409;-74
2022/07/24 04:26:49;;;;;;;14.00;10.50;;;17.40;67.00;;;;;;5053981;28;20401;-74
2022/07/24 04:29:15;;;;;;;16.73;10.85;;;17.40;67.20;;;;;;5053756;28;20856;-75
2022/07/24 04:31:40;;;;;;;14.07;10.47;;;17.40;67.90;;;;;;5057018;28;20373;-75
2022/07/24 04:34:06;;;;;;;10.90;9.80;;;17.40;68.10;;;;;;5059445;28;20397;-75
2022/07/24 04:36:31;;;;;;;14.57;10.50;;;17.40;69.70;;;;;;5059661;28;20400;-75
2022/07/24 04:38:57;;;;;;;13.35;10.75;;;17.40;68.80;;;;;;5059697;28;20385;-75
2022/07/24 04:41:23;;;;;;;12.63;10.60;;;17.40;69.10;;;;;;5055623;28;20393;-74
2022/07/24 04:43:49;;;;;;;13.00;10.63;;;17.50;69.00;;;;;;5053509;28;20456;-74
2022/07/24 04:46:15;;;;;;;18.10;10.82;;;17.50;68.70;;;;;;5053479;28;20936;-74
2022/07/24 04:48:41;;;;;;;13.27;10.75;;;17.60;68.50;;;;;;5053626;28;20396;-75
2022/07/24 04:51:06;;;;;;;10.93;9.82;;;17.60;66.80;;;;;;5056568;28;20390;-75
2022/07/24 04:53:32;;;;;;;11.07;9.97;;;17.70;65.60;;;;;;5053670;28;20428;-74
2022/07/24 04:55:58;;;;;;;14.23;9.90;;;17.70;64.80;;;;;;5053385;28;20739;-74
2022/07/24 04:58:25;;;;;;;12.65;9.95;;;17.80;64.60;;;;;;5051993;28;20468;-74
2022/07/24 05:00:50;;;;;;;14.93;10.05;;;17.90;62.90;;;;;;5053804;28;20393;-75
2022/07/24 05:03:16;;;;;;;14.38;9.50;;;17.90;61.70;;;;;;5053664;28;20954;-74
2022/07/24 05:05:41;;;;;;;14.20;9.50;;;18.00;60.40;;;;;;5053382;28;20743;-75
2022/07/24 05:08:07;;;;;;;14.80;9.80;;;18.10;60.10;;;;;;5055288;28;20404;-75
2022/07/24 05:10:32;;;;;;;10.85;9.20;;;18.20;59.20;;;;;;5063847;28;20374;-75
2022/07/24 05:12:58;;;;;;;12.07;8.77;;;18.20;57.90;;;;;;5074661;28;20404;-75
2022/07/24 05:15:23;;;;;;;12.00;9.53;;;18.30;56.90;;;;;;5077227;28;20393;-76
2022/07/24 05:17:49;;;;;;;13.02;9.45;;;18.40;56.60;;;;;;5077550;28;20389;-75
2022/07/24 05:20:15;;;;;;;15.60;9.27;;;18.50;55.40;;;;;;5064929;28;20443;-74
2022/07/24 05:22:40;;;;;;;12.63;9.30;;;18.60;53.90;;;;;;5052708;28;20381;-74
2022/07/24 05:25:06;;;;;;;14.73;10.77;;;18.80;52.50;;;;;;5053053;28;20502;-74
2022/07/24 05:27:32;;;;;;;10.30;8.93;;;18.90;52.20;;;;;;5053008;28;20386;-74
2022/07/24 05:29:57;;;;;;;11.07;9.40;;;18.90;51.00;;;;;;5052529;28;20377;-75
2022/07/24 05:32:23;;;;;;;12.43;9.10;;;19.00;50.40;;;;;;5052276;28;20530;-74
2022/07/24 05:34:48;;;;;;;11.63;8.40;;;19.10;49.00;;;;;;5052378;28;20393;-74
2022/07/24 05:37:14;;;;;;;8.90;8.00;;;19.10;48.70;;;;;;5052381;28;20948;-74
2022/07/24 05:39:40;;;;;;;10.30;8.20;;;19.10;49.20;;;;;;5051179;28;20389;-75
2022/07/24 05:42:05;;;;;;;11.32;8.65;;;19.10;50.50;;;;;;5052105;28;20428;-74
2022/07/24 05:44:31;;;;;;;9.33;8.33;;;19.10;49.80;;;;;;5052066;28;20411;-74
2022/07/24 05:46:57;;;;;;;9.30;8.30;;;19.20;48.70;;;;;;5050901;28;20400;-74
2022/07/24 05:49:22;;;;;;;11.68;8.00;;;19.20;47.50;;;;;;5052276;28;20409;-75
2022/07/24 05:51:48;;;;;;;9.83;8.67;;;19.20;47.00;;;;;;5052252;28;20466;-76
2022/07/24 05:54:14;;;;;;;12.73;9.50;;;19.40;46.00;;;;;;5052507;28;20421;-74
2022/07/24 05:56:40;;;;;;;9.85;8.77;;;19.50;45.90;;;;;;5052424;28;20386;-74
2022/07/24 05:59:05;;;;;;;11.10;8.85;;;19.50;46.60;;;;;;5051828;28;20397;-74
2022/07/24 06:01:32;;;;;;;12.32;8.70;;;19.50;45.00;;;;;;5052051;28;20394;-74
2022/07/24 06:03:58;;;;;;;12.52;9.80;;;19.60;45.40;;;;;;5052002;28;20831;-74
2022/07/24 06:06:23;;;;;;;10.73;9.10;;;19.70;45.40;;;;;;5052107;28;20381;-74
2022/07/24 06:08:49;;;;;;;12.60;9.57;;;19.80;43.80;;;;;;5052424;28;20947;-75
2022/07/24 06:11:15;;;;;;;12.52;9.77;;;19.90;43.80;;;;;;5056298;28;20384;-75
2022/07/24 06:13:40;;;;;;;14.90;10.60;;;20.10;42.80;;;;;;5055814;28;20770;-75
2022/07/24 06:16:06;;;;;;;12.10;9.57;;;20.20;40.80;;;;;;5052478;28;20491;-75
2022/07/24 06:18:31;;;;;;;16.35;10.73;;;20.20;40.70;;;;;;5051790;28;20381;-74
2022/07/24 06:20:57;;;;;;;13.00;10.80;;;20.30;40.60;;;;;;5051423;28;20949;-73
2022/07/24 06:23:23;;;;;;;15.00;11.27;;;20.40;40.70;;;;;;5051505;28;20410;-75
2022/07/24 06:25:48;;;;;;;16.15;10.60;;;20.40;39.70;;;;;;5051324;28;20378;-73
2022/07/24 06:28:14;;;;;;;14.43;11.17;;;20.50;40.20;;;;;;5051444;28;20471;-73
2022/07/24 06:30:40;;;;;;;15.93;11.30;;;20.60;39.60;;;;;;5051384;28;20388;-74
2022/07/24 06:33:06;;;;;;;16.00;11.03;;;20.70;40.20;;;;;;5051192;28;20945;-73
2022/07/24 06:35:32;;;;;;;15.37;11.30;;;20.70;39.50;;;;;;5051562;28;20381;-74
2022/07/24 06:38:00;;;;;;;15.75;11.00;;;20.80;38.90;;;;;;5051844;28;20846;-73
2022/07/24 06:40:25;;;;;;;13.57;11.15;;;20.90;38.90;;;;;;5051740;28;20417;-74
2022/07/24 06:42:51;;;;;;;14.73;10.20;;;21.00;39.60;;;;;;5051060;28;20432;-73
2022/07/24 06:45:17;;;;;;;14.67;11.57;;;21.10;38.20;;;;;;5052847;28;20941;-75
2022/07/24 06:47:42;;;;;;;18.43;11.53;;;21.20;38.30;;;;;;5053030;28;20856;-74
2022/07/24 06:50:09;;;;;;;14.68;11.00;;;21.30;37.70;;;;;;5052198;28;20754;-74
2022/07/24 06:52:35;;;;;;;14.23;11.73;;;21.40;37.50;;;;;;5052419;28;20417;-73
2022/07/24 06:55:01;;;;;;;17.77;11.83;;;21.50;36.80;;;;;;5052524;28;20393;-73
2022/07/24 06:57:26;;;;;;;12.80;10.13;;;21.60;36.30;;;;;;5052109;28;20757;-73
2022/07/24 06:59:53;;;;;;;11.45;9.82;;;21.70;36.00;;;;;;5049677;28;20473;-73
2022/07/24 07:02:19;;;;;;;13.48;10.30;;;21.80;35.10;;;;;;5049403;28;20378;-73
2022/07/24 07:04:45;;;;;;;14.60;10.40;;;21.80;33.80;;;;;;5051067;28;20421;-73
2022/07/24 07:07:10;;;;;;;13.20;10.00;;;21.80;34.20;;;;;;5051647;28;20396;-75
2022/07/24 07:09:36;;;;;;;15.45;9.70;;;22.00;33.10;;;;;;5054007;28;20382;-74
2022/07/24 07:12:04;;;;;;;14.60;10.43;;;22.00;34.00;;;;;;5053887;28;20389;-73
2022/07/24 07:14:29;;;;;;;12.05;9.00;;;22.00;32.90;;;;;;5049878;28;20427;-74
2022/07/24 07:16:55;;;;;;;13.15;9.30;;;22.20;33.00;;;;;;5051392;28;20429;-74
2022/07/24 07:19:21;;;;;;;16.60;9.80;;;22.20;32.50;;;;;;5051195;28;20443;-75
2022/07/24 07:21:46;;;;;;;13.97;10.13;;;22.30;32.60;;;;;;5052431;28;20382;-74
2022/07/24 07:24:12;;;;;;;14.13;9.32;;;22.50;31.80;;;;;;5054295;28;20405;-74
2022/07/24 07:26:38;;;;;;;10.47;8.70;;;22.60;31.20;;;;;;5055072;28;20564;-74
2022/07/24 07:29:03;;;;;;;11.10;9.00;;;22.70;29.90;;;;;;5059066;28;20385;-75
2022/07/24 07:31:29;;;;;;;10.85;8.75;;;22.80;30.20;;;;;;5061240;28;20381;-75
2022/07/24 07:33:56;;;;;;;11.33;8.90;;;22.80;30.00;;;;;;5059650;28;20412;-75
2022/07/24 07:36:21;;;;;;;12.40;8.70;;;22.90;28.80;;;;;;5058637;28;20476;-74
2022/07/24 07:38:47;;;;;;;10.93;9.10;;;23.10;28.70;;;;;;5060229;28;20459;-76
2022/07/24 07:41:13;;;;;;;12.30;9.20;;;23.10;28.50;;;;;;5059726;28;20396;-73
2022/07/24 07:43:38;;;;;;;13.65;8.80;;;23.30;27.90;;;;;;5060068;28;20496;-75
2022/07/24 07:46:05;;;;;;;13.80;9.50;;;23.40;27.10;;;;;;5061045;28;20377;-74
2022/07/24 07:48:30;;;;;;;11.68;9.63;;;23.40;26.30;;;;;;5061260;28;20382;-74
2022/07/24 07:50:57;;;;;;;13.93;9.57;;;23.40;25.80;;;;;;5070573;22;20432;-74
2022/07/24 07:53:24;;;;;;;12.50;8.88;;;23.50;26.10;;;;;;5055013;28;20386;-74
2022/07/24 07:55:51;;;;;;;10.80;9.32;;;23.60;26.00;;;;;;5055374;28;20421;-73
2022/07/24 07:58:17;;;;;;;15.55;9.80;;;23.80;25.50;;;;;;5054825;28;20470;-73
2022/07/24 08:00:43;;;;;;;14.80;10.60;;;23.80;24.90;;;;;;5054080;28;20409;-74
2022/07/24 08:03:09;;;;;;;16.90;11.30;;;23.80;24.60;;;;;;5053690;28;20518;-75
2022/07/24 08:05:34;;;;;;;15.00;10.80;;;23.80;24.40;;;;;;5054194;28;20423;-74
2022/07/24 08:08:00;;;;;;;15.43;10.77;;;23.90;24.00;;;;;;5053991;28;20374;-72
2022/07/24 08:10:26;;;;;;;15.40;9.88;;;23.80;24.00;;;;;;5053875;28;20404;-73
2022/07/24 08:12:52;;;;;;;10.83;9.53;;;23.80;24.60;;;;;;5053571;28;20385;-74
2022/07/24 08:15:18;;;;;;;12.45;9.43;;;24.00;23.90;;;;;;5053859;28;20837;-75
2022/07/24 08:17:43;;;;;;;14.00;10.20;;;24.10;23.70;;;;;;5053845;28;20861;-75
2022/07/24 08:20:09;;;;;;;16.80;11.53;;;24.30;22.90;;;;;;5053413;28;20413;-73
2022/07/24 08:22:35;;;;;;;15.60;10.57;;;24.30;22.80;;;;;;5053554;28;20897;-76
2022/07/24 08:25:00;;;;;;;14.88;9.60;;;24.30;23.10;;;;;;5053330;28;20462;-75
2022/07/24 08:27:26;;;;;;;14.87;10.20;;;24.40;22.90;;;;;;5053700;28;20865;-75
2022/07/24 08:29:52;;;;;;;14.05;10.30;;;24.50;22.70;;;;;;5053463;28;20385;-75
2022/07/24 08:32:18;;;;;;;14.43;10.82;;;24.50;22.00;;;;;;5053218;28;20433;-75
2022/07/24 08:34:44;;;;;;;13.37;10.70;;;24.40;22.40;;;;;;5054287;28;20438;-73
2022/07/24 08:37:09;;;;;;;15.35;10.43;;;24.50;22.50;;;;;;5054247;28;20386;-73
2022/07/24 08:39:35;;;;;;;16.10;11.40;;;24.50;22.40;;;;;;5053188;28;20377;-73
2022/07/24 08:42:00;;;;;;;14.75;10.43;;;24.60;21.90;;;;;;5053677;28;20443;-75
2022/07/24 08:44:26;;;;;;;15.43;10.37;;;24.70;22.40;;;;;;5053380;28;20440;-74
2022/07/24 08:46:54;;;;;;;15.05;10.30;;;24.90;21.40;;;;;;5053175;28;20385;-75
2022/07/24 08:49:21;;;;;;;18.25;12.25;;;25.00;21.30;;;;;;5053142;28;20386;-73
2022/07/24 08:51:49;;;;;;;17.65;11.00;;;25.00;20.50;;;;;;5053014;28;21026;-74
2022/07/24 08:54:14;;;;;;;18.03;10.83;;;25.00;20.60;;;;;;5053179;28;20804;-74
2022/07/24 08:56:40;;;;;;;14.00;10.70;;;25.00;22.10;;;;;;5056466;28;20465;-74
2022/07/24 08:59:17;;;;;;;25.42;10.50;;;25.10;20.50;;;;;;5059746;28;20463;-74
2022/07/24 09:01:42;;;;;;;17.00;10.35;;;25.20;21.20;;;;;;5057212;28;20389;-74
2022/07/24 09:04:34;;;;;;;12.13;9.90;;;25.30;20.00;;;;;;5055580;28;20492;-74
2022/07/24 09:07:01;;;;;;;14.55;9.68;;;25.30;19.90;;;;;;5055933;28;20393;-75
2022/07/24 09:09:26;;;;;;;15.90;11.38;;;25.40;20.20;;;;;;5056242;28;20385;-73
2022/07/24 09:12:09;;;;;;;15.70;11.80;;;25.50;19.40;;;;;;5053056;28;20940;-73
2022/07/24 09:14:38;;;;;;;20.45;11.00;;;25.50;18.80;;;;;;5053109;28;20420;-74
2022/07/24 09:17:05;;;;;;;14.90;10.90;;;25.50;19.40;;;;;;5054575;28;20393;-75
2022/07/24 09:19:44;;;;;;;12.73;10.13;;;25.60;18.70;;;;;;5054142;28;20381;-73
2022/07/24 09:22:15;;;;;;;12.52;10.80;;;25.60;19.10;;;;;;5054164;28;20447;-75
2022/07/24 09:24:41;;;;;;;14.93;10.52;;;25.60;18.80;;;;;;5054253;28;20412;-75
2022/07/24 09:27:14;;;;;;;15.27;10.50;;;25.70;18.40;;;;;;5053295;28;20389;-75
2022/07/24 09:29:39;;;;;;;14.55;10.80;;;25.80;18.50;;;;;;5053081;28;20855;-74
2022/07/24 09:32:05;;;;;;;15.43;10.63;;;25.90;17.90;;;;;;5051643;28;20394;-74
2022/07/24 09:34:40;;;;;;;15.20;10.18;;;26.00;18.20;;;;;;5052478;28;20389;-74
2022/07/24 09:37:08;;;;;;;12.13;9.02;;;26.10;18.80;;;;;;5052790;28;20890;-75
2022/07/24 09:39:36;;;;;;;14.05;9.80;;;26.10;17.80;;;;;;5053292;28;20381;-76
2022/07/24 09:42:05;;;;;;;13.10;9.13;;;26.20;18.60;;;;;;5060042;28;20432;-73
2022/07/24 09:44:31;;;;;;;15.60;10.98;;;26.40;17.60;;;;;;5063846;28;20413;-74
2022/07/24 09:47:03;;;;;;;12.70;9.57;;;26.40;17.40;;;;;;5066072;28;20874;-73
2022/07/24 09:49:30;;;;;;;13.13;10.00;;;26.50;17.10;;;;;;5064364;28;20381;-73
2022/07/24 09:52:14;;;;;;;12.90;9.80;;;26.60;16.70;;;;;;5062647;28;20470;-74
2022/07/24 09:54:47;;;;;;;11.40;9.38;;;26.60;17.10;;;;;;5057097;28;20384;-74
2022/07/24 09:57:22;;;;;;;15.13;9.38;;;26.60;17.30;;;;;;5053512;28;20391;-75
2022/07/24 09:59:52;;;;;;;12.68;9.55;;;26.60;16.50;;;;;;5052590;28;20381;-75
2022/07/24 10:02:22;;;;;;;11.63;8.38;;;26.60;16.80;;;;;;5052174;28;20561;-73
2022/07/24 10:04:49;;;;;;;10.48;8.00;;;26.60;17.10;;;;;;5052410;28;20816;-75
2022/07/24 10:07:17;;;;;;;14.98;9.23;;;26.80;17.30;;;;;;5051922;28;20465;-75
2022/07/24 10:09:45;;;;;;;11.15;8.68;;;27.00;16.40;;;;;;5051766;28;20834;-74
2022/07/24 10:12:20;;;;;;;15.48;9.13;;;27.10;16.20;;;;;;5051477;28;20465;-75
2022/07/24 10:14:48;;;;;;;12.90;8.30;;;27.20;15.80;;;;;;5051918;28;20393;-73
2022/07/24 10:17:15;;;;;;;11.90;8.30;;;27.10;15.90;;;;;;5051609;28;20466;-74
2022/07/24 10:19:46;;;;;;;17.20;8.95;;;27.20;16.10;;;;;;5051578;28;20722;-74
2022/07/24 10:22:16;;;;;;;10.77;8.30;;;27.40;15.90;;;;;;5051097;28;20447;-75
2022/07/24 10:24:55;;;;;;;13.48;8.70;;;27.50;16.00;;;;;;5051243;28;20405;-73
2022/07/24 10:27:31;;;;;;;8.70;7.80;;;27.50;15.40;;;;;;5051419;28;20378;-75
2022/07/24 10:30:04;;;;;;;16.33;8.40;;;27.70;15.80;;;;;;5051613;28;20742;-75
2022/07/24 10:32:31;;;;;;;10.80;8.18;;;28.00;14.40;;;;;;5051329;28;20378;-74
2022/07/24 10:35:13;;;;;;;11.18;7.90;;;28.00;14.30;;;;;;5051559;28;20385;-74
2022/07/24 10:38:06;;;;;;;10.18;8.60;;;28.00;14.40;;;;;;5051599;28;20382;-75
2022/07/24 10:40:51;;;;;;;11.75;8.43;;;27.90;14.00;;;;;;5050325;28;20389;-75
2022/07/24 10:43:21;;;;;;;8.40;7.60;;;28.00;13.60;;;;;;5051864;28;20551;-75
2022/07/24 10:46:07;;;;;;;11.50;8.10;;;27.90;13.50;;;;;;5051826;28;20795;-75
2022/07/24 10:48:39;;;;;;;11.50;8.52;;;28.10;13.50;;;;;;5050691;28;20452;-76
2022/07/24 10:51:05;;;;;;;10.40;7.63;;;28.20;13.40;;;;;;5052198;28;20447;-75
2022/07/24 10:53:37;;;;;;;14.23;8.40;;;28.20;13.40;;;;;;5053111;28;20743;-74
2022/07/24 10:56:24;;;;;;;11.82;8.40;;;28.10;13.70;;;;;;5053473;28;20385;-74
2022/07/24 10:59:07;;;;;;;9.80;8.00;;;28.20;13.80;;;;;;5067842;28;20407;-75
2022/07/24 11:01:47;;;;;;;9.23;7.82;;;28.40;13.50;;;;;;5071953;28;20381;-75
2022/07/24 11:04:19;;;;;;;9.07;8.13;;;28.60;12.70;;;;;;5067593;28;20409;-76
2022/07/24 11:06:47;;;;;;;8.80;7.90;;;28.40;12.40;;;;;;5062932;28;20386;-75
2022/07/24 11:09:13;;;;;;;14.60;7.95;;;28.10;13.00;;;;;;5051077;28;20822;-75
2022/07/24 11:12:03;;;;;;;8.00;7.20;;;27.90;13.20;;;;;;5051314;28;20440;-75
2022/07/24 11:14:38;;;;;;;9.50;7.80;;;28.00;13.40;;;;;;5051252;28;20465;-75
2022/07/24 11:17:41;;;;;;;8.73;7.65;;;28.20;12.50;;;;;;5050765;28;20377;-75
2022/07/24 11:20:15;;;;;;;9.65;7.80;;;28.50;11.90;;;;;;5050738;28;20858;-75
2022/07/24 11:22:48;;;;;;;10.77;7.50;;;28.60;11.50;;;;;;5050689;28;20909;-73
2022/07/24 11:25:20;;;;;;;8.45;7.25;;;28.90;11.30;;;;;;5050452;28;20382;-75
2022/07/24 11:27:57;;;;;;;9.07;7.10;;;29.10;10.10;;;;;;5050848;28;20381;-73
2022/07/24 11:30:29;;;;;;;8.95;6.90;;;29.30;10.00;;;;;;5049451;28;20385;-74
2022/07/24 11:32:56;;;;;;;8.88;6.80;;;29.50;9.30;;;;;;5048969;28;20473;-74
2022/07/24 11:35:33;;;;;;;7.13;6.18;;;29.40;7.50;;;;;;5050917;28;20378;-75
2022/07/24 11:38:00;;;;;;;7.45;6.03;;;29.30;8.00;;;;;;5051012;28;20531;-75
2022/07/24 11:40:26;;;;;;;7.83;6.10;;;29.30;8.90;;;;;;5050440;28;20385;-75
2022/07/24 11:43:00;;;;;;;6.90;6.20;;;29.40;8.10;;;;;;5050618;28;20392;-74
2022/07/24 11:45:25;;;;;;;8.32;6.00;;;29.40;8.50;;;;;;5049421;28;20451;-75
2022/07/24 11:47:54;;;;;;;8.00;6.60;;;29.30;8.40;;;;;;5050402;28;20865;-73
2022/07/24 11:50:22;;;;;;;8.02;6.28;;;29.10;8.00;;;;;;5050167;28;20429;-75
2022/07/24 11:52:47;;;;;;;8.27;6.30;;;29.10;8.40;;;;;;5050248;28;20435;-75
2022/07/24 11:55:15;;;;;;;9.73;6.85;;;29.20;9.10;;;;;;5050087;28;20373;-76
2022/07/24 11:57:43;;;;;;;7.68;5.70;;;29.20;7.60;;;;;;5050359;28;20467;-74
2022/07/24 12:00:16;;;;;;;6.93;5.70;;;28.90;7.30;;;;;;5050225;28;20561;-74
2022/07/24 12:02:49;;;;;;;12.70;6.57;;;28.90;7.70;;;;;;5050217;28;20373;-75
2022/07/24 12:05:29;;;;;;;10.73;6.90;;;29.20;8.50;;;;;;5050719;28;20373;-74
2022/07/24 12:07:57;;;;;;;7.27;6.53;;;29.50;8.40;;;;;;5050634;28;20417;-74
2022/07/24 12:10:23;;;;;;;8.40;5.85;;;29.80;7.90;;;;;;5050455;28;20748;-75
2022/07/24 12:12:51;;;;;;;9.10;6.30;;;29.90;6.70;;;;;;5062775;28;20381;-75
2022/07/24 12:15:17;;;;;;;6.60;5.60;;;30.00;7.60;;;;;;5065525;28;20386;-73
2022/07/24 12:18:01;;;;;;;6.18;5.57;;;30.10;6.00;;;;;;5061528;28;20458;-74
2022/07/24 12:20:29;;;;;;;7.53;6.10;;;30.10;5.30;;;;;;5062819;28;20373;-74
2022/07/24 12:22:55;;;;;;;8.60;6.22;;;30.20;6.80;;;;;;5059661;28;20405;-75
2022/07/24 12:25:22;;;;;;;8.68;5.90;;;30.20;6.00;;;;;;5054785;28;20386;-74
2022/07/24 12:27:48;;;;;;;7.67;5.80;;;30.20;4.90;;;;;;5053670;28;20439;-74
2022/07/24 12:30:31;;;;;;;6.57;5.63;;;30.30;6.30;;;;;;5053873;28;20378;-75
2022/07/24 12:33:02;;;;;;;6.82;5.70;;;30.30;5.50;;;;;;5053373;28;20377;-75
2022/07/24 12:35:30;;;;;;;7.70;5.13;;;30.30;4.30;;;;;;5052250;28;20830;-75
2022/07/24 12:37:58;;;;;;;5.90;5.30;;;30.10;4.20;;;;;;5053556;28;20896;-75